Time;durP1;ratioP1;P1;durP2;ratioP2;P2;SDS_P1;SDS_P2;PMS_P1;PMS_P2;Temp;Humidity;BMP_temperature;BMP_pressure;BME280_temperature;BME280_humidity;BME280_pressure;Samples;Min_cycle;Max_cycle;Signal;HPM_P1;HPM_P2
2022/11/13 00:02:35;;;;;;;2.37;2.17;;;;;;;23.68;43.50;99992.69;1872766;75;28247;-42
2022/11/13 00:05:42;;;;;;;2.30;2.05;;;;;;;23.66;43.57;99992.09;1870530;75;28149;-42
2022/11/13 00:08:50;;;;;;;2.10;2.00;;;;;;;23.70;43.53;99992.77;1861368;75;28161;-44
2022/11/13 00:11:57;;;;;;;2.65;2.20;;;;;;;23.72;43.42;99994.74;1881747;75;28253;-42
2022/11/13 00:15:04;;;;;;;2.20;2.00;;;;;;;23.72;43.47;99997.48;1867737;75;28197;-42
2022/11/13 00:18:10;;;;;;;2.00;1.90;;;;;;;23.75;43.39;99989.33;1869052;75;28148;-46
2022/11/13 00:21:20;;;;;;;2.80;2.40;;;;;;;23.77;43.36;99989.94;1862878;75;28149;-42
2022/11/13 00:24:26;;;;;;;2.37;2.20;;;;;;;23.75;43.33;99987.44;1856179;75;28149;-45
2022/11/13 00:27:32;;;;;;;2.30;2.10;;;;;;;23.74;43.43;99987.64;1881408;75;28114;-42
2022/11/13 00:30:38;;;;;;;2.33;2.08;;;;;;;23.75;43.48;99983.84;1888412;75;28129;-45
2022/11/13 00:33:45;;;;;;;2.10;2.00;;;;;;;23.73;43.49;99982.72;1867478;75;28156;-42
2022/11/13 00:36:52;;;;;;;2.13;2.03;;;;;;;23.72;43.58;99976.91;1881969;75;28152;-42
2022/11/13 00:39:57;;;;;;;2.00;1.90;;;;;;;23.71;43.59;99975.23;1863230;75;28053;-43
2022/11/13 00:43:03;;;;;;;2.52;2.33;;;;;;;23.72;43.62;99967.84;1885909;73;28091;-46
2022/11/13 00:46:10;;;;;;;2.35;2.15;;;;;;;23.78;43.19;99962.82;1869226;75;28273;-42
2022/11/13 00:49:16;;;;;;;4.05;2.33;;;;;;;23.79;43.13;99960.36;1877526;75;28547;-44
2022/11/13 00:52:23;;;;;;;2.10;2.00;;;;;;;23.74;43.28;99950.61;1886448;75;28111;-43
2022/11/13 00:55:29;;;;;;;2.20;2.00;;;;;;;23.72;43.38;99950.86;1879258;75;28072;-41
2022/11/13 00:58:35;;;;;;;2.15;2.02;;;;;;;23.73;43.42;99952.55;1856617;75;28164;-44
2022/11/13 01:01:42;;;;;;;2.90;2.00;;;;;;;23.72;43.46;99944.52;1858830;75;28188;-42
2022/11/13 01:04:49;;;;;;;1.95;1.85;;;;;;;23.72;43.47;99937.67;1861621;75;28166;-43
2022/11/13 01:07:56;;;;;;;2.80;2.00;;;;;;;23.72;43.47;99934.92;1890218;75;28169;-42
2022/11/13 01:11:11;;;;;;;2.20;2.10;;;;;;;23.72;43.48;99941.78;1876072;75;28114;-42
2022/11/13 01:14:17;;;;;;;2.20;2.00;;;;;;;23.74;43.45;99941.01;1878481;75;28160;-44
2022/11/13 01:17:24;;;;;;;1.92;1.82;;;;;;;23.71;43.51;99940.94;1874629;75;28142;-42
2022/11/13 01:20:31;;;;;;;2.22;1.92;;;;;;;23.69;43.51;99936.22;1872135;75;28111;-45
2022/11/13 01:23:38;;;;;;;1.90;1.80;;;;;;;23.69;43.51;99932.11;1876216;75;28279;-42
2022/11/13 01:26:44;;;;;;;3.70;2.50;;;;;;;23.69;43.62;99932.63;1867973;75;28021;-43
2022/11/13 01:29:50;;;;;;;2.20;2.10;;;;;;;23.72;43.58;99930.28;1868184;75;28209;-43
2022/11/13 01:32:57;;;;;;;3.30;2.00;;;;;;;23.71;43.60;99927.78;1882557;75;28193;-42
2022/11/13 01:36:09;;;;;;;2.35;2.12;;;;;;;23.70;43.60;99927.47;1869980;75;28196;-44
2022/11/13 01:39:15;;;;;;;2.30;2.10;;;;;;;23.70;43.63;99914.59;1856554;75;28188;-42
2022/11/13 01:42:22;;;;;;;2.17;1.97;;;;;;;23.68;43.69;99908.51;1868576;75;28324;-42
2022/11/13 01:45:55;;;;;;;2.65;2.00;;;;;;;23.70;43.63;99902.78;1867199;75;28209;-42
2022/11/13 01:49:13;;;;;;;3.40;2.00;;;;;;;23.72;43.62;99910.23;1883175;75;28133;-43
2022/11/13 01:52:28;;;;;;;3.03;2.10;;;;;;;23.66;43.72;99898.31;1873693;75;28176;-43
2022/11/13 01:55:35;;;;;;;2.20;2.00;;;;;;;23.65;43.75;99888.39;1873628;75;28090;-43
2022/11/13 01:58:44;;;;;;;2.02;1.92;;;;;;;23.66;43.76;99881.85;1878518;75;28080;-46
2022/11/13 02:01:51;;;;;;;2.35;2.25;;;;;;;23.65;43.73;99881.53;1866901;75;28302;-46
2022/11/13 02:04:58;;;;;;;2.08;1.92;;;;;;;23.68;43.78;99880.23;1877406;75;28015;-44
2022/11/13 02:08:05;;;;;;;2.20;2.10;;;;;;;23.67;43.75;99881.29;1862904;75;28225;-43
2022/11/13 02:11:12;;;;;;;2.53;2.00;;;;;;;23.67;43.74;99882.13;1879300;75;28375;-43
2022/11/13 02:14:21;;;;;;;2.30;1.90;;;;;;;23.68;43.73;99883.82;1882774;75;28136;-42
2022/11/13 02:17:39;;;;;;;2.00;1.80;;;;;;;23.68;43.80;99885.72;1887377;75;28177;-43
2022/11/13 02:20:57;;;;;;;1.90;1.80;;;;;;;23.68;43.82;99886.56;1876796;75;28258;-44
2022/11/13 02:24:12;;;;;;;2.27;2.00;;;;;;;23.60;43.79;99862.19;1875534;75;28129;-42
2022/11/13 02:27:36;;;;;;;1.90;1.80;;;;;;;23.66;43.84;99872.78;1867345;75;28258;-42
2022/11/13 02:30:43;;;;;;;2.10;2.00;;;;;;;23.68;43.83;99869.27;1865070;75;28113;-42
2022/11/13 02:33:49;;;;;;;2.25;2.05;;;;;;;23.64;43.89;99868.88;1873313;75;28165;-44
2022/11/13 02:36:56;;;;;;;2.30;1.95;;;;;;;23.64;43.87;99859.84;1858734;75;28219;-44
2022/11/13 02:40:02;;;;;;;2.17;1.90;;;;;;;23.67;43.87;99860.72;1872252;75;28168;-43
2022/11/13 02:43:09;;;;;;;1.85;1.75;;;;;;;23.66;43.85;99858.53;1862921;75;28271;-43
2022/11/13 02:46:15;;;;;;;2.03;1.87;;;;;;;23.68;43.85;99855.55;1886985;75;28071;-46
2022/11/13 02:49:21;;;;;;;2.22;1.87;;;;;;;23.68;43.86;99852.28;1862183;75;28164;-42
2022/11/13 02:52:29;;;;;;;2.00;1.80;;;;;;;23.68;43.79;99859.14;1875815;75;28201;-43
2022/11/13 02:55:36;;;;;;;1.82;1.72;;;;;;;23.68;43.82;99859.66;1857774;75;28172;-43
2022/11/13 02:58:43;;;;;;;2.00;1.90;;;;;;;23.69;43.86;99854.47;1867668;75;28156;-42
2022/11/13 03:01:49;;;;;;;2.22;2.12;;;;;;;23.66;43.87;99848.94;1869024;75;28194;-44
2022/11/13 03:04:56;;;;;;;1.80;1.70;;;;;;;23.66;43.84;99854.95;1856598;75;28289;-44
2022/11/13 03:08:03;;;;;;;1.77;1.67;;;;;;;23.66;43.85;99848.94;1874683;75;28110;-41
2022/11/13 03:11:10;;;;;;;2.45;2.02;;;;;;;23.66;43.89;99840.71;1875970;75;28450;-44
2022/11/13 03:14:16;;;;;;;2.30;1.60;;;;;;;23.66;43.87;99842.08;1865003;75;28095;-45
2022/11/13 03:17:23;;;;;;;2.08;1.87;;;;;;;23.67;43.83;99847.85;1868106;75;28270;-43
2022/11/13 03:20:30;;;;;;;2.02;1.92;;;;;;;23.69;43.84;99852.56;1889185;75;28196;-43
2022/11/13 03:23:37;;;;;;;2.00;1.90;;;;;;;23.68;43.93;99850.91;1878465;75;28135;-43
2022/11/13 03:26:43;;;;;;;2.00;1.90;;;;;;;23.70;43.93;99853.41;1881362;75;28322;-41
2022/11/13 03:29:50;;;;;;;1.95;1.70;;;;;;;23.67;43.92;99843.73;1872405;75;28230;-45
2022/11/13 03:32:57;;;;;;;1.80;1.70;;;;;;;23.66;43.96;99836.59;1874498;75;28152;-42
2022/11/13 03:36:05;;;;;;;2.00;1.90;;;;;;;23.66;43.99;99831.64;1883262;75;28259;-44
2022/11/13 03:39:11;;;;;;;2.08;1.98;;;;;;;23.65;44.05;99829.95;1865047;75;28184;-46
2022/11/13 03:42:18;;;;;;;1.77;1.67;;;;;;;23.66;44.08;99834.38;1882047;75;28234;-44
2022/11/13 03:45:24;;;;;;;2.40;2.02;;;;;;;23.67;44.02;99830.55;1864970;75;28162;-43
2022/11/13 03:48:30;;;;;;;3.72;2.05;;;;;;;23.67;43.95;99825.06;1885147;75;28149;-41
2022/11/13 03:51:37;;;;;;;1.90;1.80;;;;;;;23.67;43.93;99819.58;1860667;75;28150;-43
2022/11/13 03:54:43;;;;;;;2.17;1.98;;;;;;;23.66;44.01;99814.66;1862403;75;28064;-45
2022/11/13 03:57:49;;;;;;;1.87;1.70;;;;;;;23.66;44.04;99818.77;1860482;75;28221;-43
2022/11/13 04:00:56;;;;;;;1.95;1.70;;;;;;;23.66;44.10;99808.33;1879875;75;28205;-43
2022/11/13 04:04:03;;;;;;;2.20;2.00;;;;;;;23.66;44.07;99802.84;1881589;75;32084;-45
2022/11/13 04:07:09;;;;;;;2.33;1.90;;;;;;;23.67;44.13;99801.22;1881801;74;28211;-43
2022/11/13 04:10:15;;;;;;;2.00;1.90;;;;;;;23.64;44.08;99798.94;1883300;74;28028;-43
2022/11/13 04:13:22;;;;;;;1.92;1.82;;;;;;;23.65;44.07;99797.05;1886934;74;28157;-45
2022/11/13 04:16:28;;;;;;;3.00;1.98;;;;;;;23.67;44.09;99794.37;1884499;74;28250;-42
2022/11/13 04:19:35;;;;;;;2.02;1.92;;;;;;;23.65;44.10;99785.54;1877525;74;28132;-42
2022/11/13 04:22:41;;;;;;;2.10;2.00;;;;;;;23.67;44.06;99785.30;1890840;74;28097;-42
2022/11/13 04:25:49;;;;;;;2.30;2.00;;;;;;;23.65;44.08;99784.70;1888267;74;28145;-42
2022/11/13 04:28:56;;;;;;;1.75;1.65;;;;;;;23.65;44.02;99784.70;1902611;73;28015;-43
2022/11/13 04:32:02;;;;;;;1.90;1.80;;;;;;;23.66;44.07;99782.27;1877010;74;28235;-44
2022/11/13 04:35:09;;;;;;;1.70;1.60;;;;;;;23.66;44.04;99773.52;1881203;74;28202;-43
2022/11/13 04:38:16;;;;;;;1.77;1.67;;;;;;;23.66;44.06;99776.78;1883634;74;28212;-43
2022/11/13 04:44:36;;;;;;;1.80;1.70;;;;;;;23.65;44.04;99775.09;1853201;74;28161;-42
2022/11/13 04:47:43;;;;;;;1.90;1.80;;;;;;;23.63;44.06;99773.97;1890417;74;28109;-43
2022/11/13 04:50:49;;;;;;;2.00;1.80;;;;;;;23.64;44.01;99774.81;1892401;74;28100;-45
2022/11/13 04:53:55;;;;;;;2.33;1.75;;;;;;;23.65;44.02;99773.73;1885246;74;28234;-43
2022/11/13 04:57:02;;;;;;;2.08;1.80;;;;;;;23.64;44.08;99771.52;1888981;74;34176;-42
2022/11/13 05:00:09;;;;;;;2.12;1.92;;;;;;;23.61;44.11;99765.15;1882607;74;28082;-42
2022/11/13 05:03:16;;;;;;;2.08;1.87;;;;;;;23.64;44.08;99763.84;1892800;74;28078;-46
2022/11/13 05:06:22;;;;;;;2.83;1.70;;;;;;;23.66;44.10;99768.56;1869376;75;28180;-43
2022/11/13 05:09:29;;;;;;;1.90;1.73;;;;;;;23.63;44.11;99764.91;1875672;75;28214;-43
2022/11/13 05:12:35;;;;;;;2.00;1.90;;;;;;;23.61;44.10;99762.41;1868769;75;28215;-44
2022/11/13 05:15:41;;;;;;;1.77;1.67;;;;;;;23.63;44.13;99761.63;1875736;75;28281;-42
2022/11/13 05:18:48;;;;;;;1.92;1.80;;;;;;;23.62;44.09;99759.14;1887309;75;28209;-44
2022/11/13 05:21:54;;;;;;;2.80;1.60;;;;;;;23.63;44.06;99748.45;1895756;75;28063;-43
2022/11/13 05:25:00;;;;;;;1.82;1.72;;;;;;;23.63;44.08;99747.08;1871422;75;31144;-43
2022/11/13 05:28:07;;;;;;;1.72;1.62;;;;;;;23.63;44.04;99731.99;1896139;75;28133;-42
2022/11/13 05:31:16;;;;;;;2.90;1.70;;;;;;;23.63;44.04;99734.21;1861603;75;28454;-42
2022/11/13 05:34:22;;;;;;;1.87;1.77;;;;;;;23.60;44.06;99723.70;1883249;75;28172;-42
2022/11/13 05:37:29;;;;;;;1.67;1.57;;;;;;;23.62;44.05;99719.37;1890716;75;28085;-42
2022/11/13 05:40:35;;;;;;;1.77;1.67;;;;;;;23.58;44.08;99718.99;1876970;75;28119;-43
2022/11/13 05:43:43;;;;;;;1.65;1.55;;;;;;;23.63;44.06;99719.13;1877222;75;28103;-43
2022/11/13 05:46:50;;;;;;;1.72;1.60;;;;;;;23.60;44.06;99718.22;1884217;75;28222;-42
2022/11/13 05:49:56;;;;;;;1.80;1.70;;;;;;;23.63;44.04;99711.42;1870807;75;28149;-42
2022/11/13 05:53:03;;;;;;;1.62;1.52;;;;;;;23.62;44.06;99712.52;1882428;75;28121;-46
2022/11/13 05:56:12;;;;;;;1.80;1.70;;;;;;;23.62;44.05;99709.77;1882828;75;28203;-42
2022/11/13 05:59:18;;;;;;;1.70;1.60;;;;;;;23.62;44.06;99711.14;1868236;75;28216;-44
2022/11/13 06:02:25;;;;;;;1.77;1.67;;;;;;;23.61;44.04;99718.53;1885092;75;28298;-43
2022/11/13 06:05:32;;;;;;;1.57;1.47;;;;;;;23.62;44.02;99718.00;1877608;74;28108;-42
2022/11/13 06:08:39;;;;;;;1.90;1.80;;;;;;;23.62;44.09;99722.92;1864472;75;28666;-42
2022/11/13 06:11:46;;;;;;;2.37;1.60;;;;;;;23.60;44.12;99723.70;1895366;75;28124;-44
2022/11/13 06:14:52;;;;;;;1.75;1.65;;;;;;;23.62;44.05;99722.12;1857617;75;28243;-43
2022/11/13 06:17:59;;;;;;;1.75;1.65;;;;;;;23.61;44.11;99720.43;1876221;75;28152;-46
2022/11/13 06:21:08;;;;;;;1.70;1.60;;;;;;;23.60;44.15;99721.48;1856317;75;28169;-43
2022/11/13 06:24:14;;;;;;;1.70;1.60;;;;;;;23.59;44.12;99716.56;1899078;75;28134;-43
2022/11/13 06:27:21;;;;;;;2.55;1.85;;;;;;;23.57;44.16;99715.94;1874563;75;28106;-42
2022/11/13 06:30:27;;;;;;;1.77;1.67;;;;;;;23.59;44.36;99723.95;1859226;75;28115;-43
2022/11/13 06:33:35;;;;;;;1.62;1.50;;;;;;;23.59;44.36;99723.95;1890043;75;28145;-43
2022/11/13 06:36:41;;;;;;;1.72;1.62;;;;;;;23.57;44.17;99711.83;1874448;75;28602;-44
2022/11/13 06:39:47;;;;;;;1.80;1.55;;;;;;;23.60;44.13;99720.12;1870836;75;28033;-45
2022/11/13 06:42:53;;;;;;;3.15;1.90;;;;;;;23.53;44.14;99705.15;1862945;75;28216;-43
2022/11/13 06:46:05;;;;;;;1.73;1.63;;;;;;;23.60;44.13;99709.98;1866986;75;28239;-47
2022/11/13 06:49:12;;;;;;;3.17;2.70;;;;;;;23.60;43.99;99714.10;1890502;75;28170;-42
2022/11/13 06:52:18;;;;;;;2.60;2.40;;;;;;;23.63;42.78;99705.94;1838017;77;28120;-45
2022/11/13 06:55:24;;;;;;;2.98;2.77;;;;;;;23.61;42.04;99699.86;1835025;77;28308;-44
2022/11/13 06:58:30;;;;;;;2.80;2.60;;;;;;;23.56;40.67;99698.36;1859191;75;28242;-43
2022/11/13 07:01:37;;;;;;;2.72;2.47;;;;;;;23.59;40.38;99693.78;1892558;75;28101;-46
2022/11/13 07:04:43;;;;;;;2.33;2.17;;;;;;;23.59;40.59;99695.16;1859673;75;28228;-46
2022/11/13 07:07:51;;;;;;;2.47;2.27;;;;;;;23.56;40.83;99692.88;1881062;74;28161;-43
2022/11/13 07:10:58;;;;;;;2.35;2.15;;;;;;;23.59;41.02;99700.64;1876910;75;28050;-43
2022/11/13 07:14:05;;;;;;;3.98;2.10;;;;;;;23.60;41.20;99693.53;1883472;75;28089;-43
2022/11/13 07:17:11;;;;;;;2.17;1.90;;;;;;;23.58;41.36;99690.20;1880711;75;28173;-42
2022/11/13 07:20:17;;;;;;;2.60;2.50;;;;;;;23.59;41.39;99695.16;1880879;75;28187;-43
2022/11/13 07:23:24;;;;;;;3.50;2.80;;;;;;;23.48;41.03;99694.61;1869840;75;28201;-44
2022/11/13 07:26:31;;;;;;;2.58;2.33;;;;;;;23.41;40.51;99692.50;1869328;75;28106;-42
2022/11/13 07:29:37;;;;;;;2.33;2.12;;;;;;;23.39;40.79;99691.34;1877835;73;28217;-46
2022/11/13 07:32:44;;;;;;;2.70;2.20;;;;;;;23.38;41.19;99688.85;1896544;75;28106;-43
2022/11/13 07:35:52;;;;;;;2.98;2.22;;;;;;;23.38;41.44;99689.13;1876417;75;28165;-43
2022/11/13 07:38:58;;;;;;;2.20;2.10;;;;;;;23.41;41.39;99689.20;1873946;75;28220;-44
2022/11/13 07:42:05;;;;;;;2.10;2.00;;;;;;;23.40;41.36;99691.66;1883056;75;28114;-46
2022/11/13 07:45:11;;;;;;;2.40;2.20;;;;;;;23.41;41.42;99689.77;1883096;75;28248;-43
2022/11/13 07:48:18;;;;;;;2.10;2.00;;;;;;;23.43;41.46;99682.14;1878635;75;28076;-43
2022/11/13 07:51:24;;;;;;;2.22;2.02;;;;;;;23.44;41.50;99690.64;1879214;74;28211;-42
2022/11/13 07:54:30;;;;;;;2.22;2.12;;;;;;;23.44;41.57;99683.79;1874845;75;28226;-43
2022/11/13 07:57:36;;;;;;;2.33;2.20;;;;;;;23.44;41.64;99678.30;1877658;75;28136;-42
2022/11/13 08:00:43;;;;;;;2.00;1.90;;;;;;;23.43;41.72;99684.34;1886955;75;28101;-42
2022/11/13 08:03:50;;;;;;;2.30;2.10;;;;;;;23.44;41.77;99682.42;1881432;75;28210;-42
2022/11/13 08:06:56;;;;;;;2.62;2.22;;;;;;;23.44;41.87;99684.62;1886046;74;28162;-42
2022/11/13 08:10:02;;;;;;;2.05;1.95;;;;;;;23.44;41.88;99676.94;1867156;75;28067;-45
2022/11/13 08:13:10;;;;;;;2.17;1.97;;;;;;;23.46;41.95;99677.53;1885527;75;28116;-43
2022/11/13 08:16:17;;;;;;;2.25;2.05;;;;;;;23.44;42.02;99675.56;1868897;75;28165;-43
2022/11/13 08:19:23;;;;;;;2.45;1.92;;;;;;;23.45;42.05;99672.61;1881187;75;28140;-44
2022/11/13 08:22:31;;;;;;;2.30;2.10;;;;;;;23.46;42.08;99674.78;1893184;75;28164;-44
2022/11/13 08:25:37;;;;;;;1.82;1.72;;;;;;;23.46;42.17;99667.94;1879706;75;28065;-43
2022/11/13 08:28:44;;;;;;;1.80;1.70;;;;;;;23.46;42.16;99672.05;1865337;74;28123;-45
2022/11/13 08:31:51;;;;;;;1.87;1.77;;;;;;;23.44;42.69;99669.55;1877079;75;28150;-42
2022/11/13 08:34:57;;;;;;;2.15;2.00;;;;;;;23.44;42.59;99661.86;1884490;75;28043;-46
2022/11/13 08:38:05;;;;;;;2.15;2.05;;;;;;;23.46;42.97;99661.08;1883489;75;28161;-43
2022/11/13 08:41:12;;;;;;;2.00;1.90;;;;;;;23.44;43.13;99660.48;1881480;75;28225;-46
2022/11/13 08:44:18;;;;;;;2.15;2.05;;;;;;;23.46;43.50;99654.22;1868084;74;28192;-42
2022/11/13 08:47:27;;;;;;;2.00;1.90;;;;;;;23.46;43.09;99653.70;1867938;75;28590;-42
